Martins Creek, Pennsylvania
Current Conditions -  °F | °C
As of 10:51 PM on Wednesday 26 Nov 2014 (Local Time) from KABE Reporting Station
Overcast Overcast  
Wind Chill: 32°   Ceiling: 8500
Heat Index: 36°   Visibility: 10mi
Dew Point: 28°   Wind: 5mph
Humidity: 73%   Direction: 340°NNW
Pressure: 29.88"   Gusts: NA
Location:  40.78°N, 75.19°W
Report Text: KABE 270351Z 34004KT 10SM OVC085 02/M02 A2988 RMK AO2 SLP121 T00221022 $
Loading
Personal Weather Stations






























Interactive Weather Map New forecast layout! Learn more

10-Day Weather Forecast

Advertisements
Track Severe Weather on mobile